createdAt,value
2023-01-28T00:02:07.007Z,1.12
2023-01-28T00:04:36.703Z,1.19
2023-01-28T00:07:05.797Z,1.22
2023-01-28T00:09:34.923Z,1.26
2023-01-28T00:12:04.392Z,1.25
2023-01-28T00:14:33.513Z,1.30
2023-01-28T00:17:07.006Z,1.35
2023-01-28T00:19:36.023Z,1.18
2023-01-28T00:22:05.187Z,1.16
2023-01-28T00:24:35.006Z,1.19
2023-01-28T00:27:04.051Z,1.23
2023-01-28T00:29:33.316Z,1.16
2023-01-28T00:32:04.609Z,1.28
2023-01-28T00:34:33.807Z,0.98
2023-01-28T00:37:03.537Z,1.06
2023-01-28T00:39:34.046Z,1.19
2023-01-28T00:42:04.069Z,0.98
2023-01-28T00:44:33.055Z,1.03
2023-01-28T00:47:07.246Z,0.99
2023-01-28T00:49:36.227Z,1.03
2023-01-28T00:52:05.349Z,1.08
2023-01-28T00:54:34.858Z,0.93
2023-01-28T00:57:04.244Z,1.09
2023-01-28T00:59:33.370Z,1.00
2023-01-28T01:02:12.770Z,0.99
2023-01-28T01:04:55.215Z,1.05
2023-01-28T01:07:36.074Z,1.06
2023-01-28T01:10:06.206Z,1.07
2023-01-28T01:12:35.478Z,0.98
2023-01-28T01:15:04.794Z,0.97
2023-01-28T01:17:34.098Z,0.83
2023-01-28T01:20:05.818Z,0.91
2023-01-28T01:22:36.843Z,0.90
2023-01-28T01:25:07.133Z,0.84
2023-01-28T01:27:38.549Z,0.85
2023-01-28T01:30:09.687Z,0.86
2023-01-28T01:32:39.344Z,0.67
2023-01-28T01:35:12.226Z,0.77
2023-01-28T01:37:45.935Z,0.69
2023-01-28T01:40:15.510Z,0.84
2023-01-28T01:42:45.839Z,0.64
2023-01-28T01:45:18.106Z,0.66
2023-01-28T01:47:49.755Z,0.70
2023-01-28T01:50:27.523Z,0.69
2023-01-28T01:52:59.820Z,0.89
2023-01-28T01:55:33.016Z,0.82
2023-01-28T01:58:06.764Z,0.82
2023-01-28T02:00:37.707Z,0.77
2023-01-28T02:03:08.397Z,0.81
2023-01-28T02:05:40.952Z,0.69
2023-01-28T02:08:25.637Z,0.77
2023-01-28T02:10:58.841Z,0.74
2023-01-28T02:13:31.903Z,0.67
2023-01-28T02:16:05.500Z,0.57
2023-01-28T02:18:34.990Z,0.58
2023-01-28T02:21:33.854Z,0.60
2023-01-28T02:24:20.939Z,0.48
2023-01-28T02:27:05.551Z,0.46
2023-01-28T02:29:45.090Z,0.48
2023-01-28T02:32:21.061Z,0.45
2023-01-28T02:34:55.336Z,0.48
2023-01-28T02:37:29.303Z,0.43
2023-01-28T02:40:02.973Z,0.45
2023-01-28T02:42:35.494Z,0.43
2023-01-28T02:45:17.212Z,0.47
2023-01-28T02:48:00.738Z,0.54
2023-01-28T02:50:40.998Z,0.44
2023-01-28T02:53:38.734Z,0.52
2023-01-28T02:56:19.480Z,0.47
2023-01-28T02:58:58.276Z,0.42
2023-01-28T03:01:35.791Z,0.51
2023-01-28T03:04:09.774Z,0.49
2023-01-28T03:06:43.385Z,0.59
2023-01-28T03:09:26.398Z,0.40
2023-01-28T03:12:22.296Z,0.41
2023-01-28T03:15:11.400Z,0.44
2023-01-28T03:18:04.452Z,0.46
2023-01-28T03:21:01.137Z,0.39
2023-01-28T03:23:55.217Z,0.45
2023-01-28T03:26:44.219Z,0.50
2023-01-28T03:29:33.818Z,0.43
2023-01-28T03:32:24.237Z,0.47
2023-01-28T03:35:13.411Z,0.48
2023-01-28T03:37:43.121Z,0.42
2023-01-28T03:40:39.832Z,0.50
2023-01-28T03:43:08.998Z,0.48
2023-01-28T03:45:39.362Z,0.61
2023-01-28T03:48:08.629Z,0.56
2023-01-28T03:50:39.109Z,0.54
2023-01-28T03:53:16.569Z,0.49
2023-01-28T03:55:52.247Z,0.44
2023-01-28T03:58:23.782Z,0.44
2023-01-28T04:00:53.364Z,0.41
2023-01-28T04:03:23.171Z,0.54
2023-01-28T04:06:08.652Z,0.49
2023-01-28T04:09:01.619Z,0.52
2023-01-28T04:11:54.168Z,0.38
2023-01-28T04:14:32.300Z,0.34
2023-01-28T04:17:16.449Z,0.33
2023-01-28T04:19:47.688Z,0.31
2023-01-28T04:22:20.149Z,0.32
2023-01-28T04:24:49.882Z,0.28
2023-01-28T04:27:20.511Z,0.29
2023-01-28T04:29:51.439Z,0.33
2023-01-28T04:32:40.223Z,0.34
2023-01-28T04:35:26.499Z,0.39
2023-01-28T04:38:11.409Z,0.27
2023-01-28T04:40:58.768Z,0.31
2023-01-28T04:43:33.719Z,0.22
2023-01-28T04:46:21.503Z,0.05
2023-01-28T04:49:11.538Z,0.00
2023-01-28T04:51:53.611Z,0.19
2023-01-28T04:54:44.481Z,0.12
2023-01-28T04:57:13.798Z,-0.03
2023-01-28T04:59:43.033Z,-0.03
2023-01-28T05:02:12.166Z,0.07
2023-01-28T05:04:43.026Z,0.01
2023-01-28T05:07:21.382Z,0.01
2023-01-28T05:09:53.011Z,0.14
2023-01-28T05:12:22.270Z,0.13
2023-01-28T05:14:51.411Z,0.15
2023-01-28T05:17:23.239Z,-0.02
2023-01-28T05:19:52.347Z,0.09
2023-01-28T05:22:25.048Z,0.04
2023-01-28T05:25:14.233Z,0.16
2023-01-28T05:27:44.279Z,0.04
2023-01-28T05:30:14.645Z,0.12
2023-01-28T05:32:45.154Z,0.02
2023-01-28T05:35:16.103Z,0.02
2023-01-28T05:37:46.113Z,0.08
2023-01-28T05:40:18.071Z,0.03
2023-01-28T05:42:48.239Z,0.21
2023-01-28T05:45:43.713Z,0.11
2023-01-28T05:48:17.161Z,0.21
2023-01-28T05:51:07.836Z,0.32
2023-01-28T05:53:39.839Z,0.36
2023-01-28T05:56:11.092Z,0.36
2023-01-28T05:58:41.597Z,0.42
2023-01-28T06:01:11.807Z,0.35
2023-01-28T06:03:45.766Z,0.36
2023-01-28T06:06:15.073Z,0.45
2023-01-28T06:08:44.710Z,0.41
2023-01-28T06:11:24.546Z,0.39
2023-01-28T06:13:56.774Z,0.41
2023-01-28T06:16:35.332Z,0.48
2023-01-28T06:19:26.616Z,0.46
2023-01-28T06:21:56.373Z,0.52
2023-01-28T06:24:25.482Z,0.45
2023-01-28T06:26:55.977Z,0.49
2023-01-28T06:29:25.248Z,0.59
2023-01-28T06:31:54.354Z,0.56
2023-01-28T06:34:23.600Z,0.59
2023-01-28T06:36:53.634Z,0.47
2023-01-28T06:39:23.045Z,0.40
2023-01-28T06:41:52.215Z,0.43
2023-01-28T06:44:23.734Z,0.49
2023-01-28T06:46:52.740Z,0.47
2023-01-28T06:49:22.294Z,0.44
2023-01-28T06:51:51.661Z,0.43
2023-01-28T06:54:20.725Z,0.52
2023-01-28T06:56:49.834Z,0.60
2023-01-28T06:59:18.793Z,0.69
2023-01-28T07:01:49.243Z,0.70
2023-01-28T07:04:19.048Z,0.84
2023-01-28T07:06:48.665Z,0.93
2023-01-28T07:09:18.313Z,0.93
2023-01-28T07:11:47.428Z,1.06
2023-01-28T07:14:16.506Z,1.15
2023-01-28T07:16:45.610Z,1.01
2023-01-28T07:19:16.132Z,1.19
2023-01-28T07:21:45.259Z,1.22
2023-01-28T07:24:14.471Z,1.03
2023-01-28T07:26:43.505Z,1.16
2023-01-28T07:29:13.498Z,1.10
2023-01-28T07:31:43.149Z,1.22
2023-01-28T07:34:12.574Z,1.37
2023-01-28T07:36:43.270Z,1.44
2023-01-28T07:39:12.531Z,1.48
2023-01-28T07:41:41.610Z,1.38
2023-01-28T07:44:13.214Z,1.45
2023-01-28T07:46:42.243Z,1.24
2023-01-28T07:49:11.414Z,1.45
2023-01-28T07:51:40.626Z,1.58
2023-01-28T07:54:12.559Z,1.67
2023-01-28T07:56:42.400Z,1.69
2023-01-28T07:59:11.630Z,1.56
2023-01-28T08:01:40.864Z,1.62
2023-01-28T08:04:10.205Z,1.34
2023-01-28T08:06:39.360Z,1.54
2023-01-28T08:09:10.021Z,1.25
2023-01-28T08:11:41.221Z,1.31
2023-01-28T08:14:11.922Z,1.30
2023-01-28T08:16:41.125Z,1.30
2023-01-28T08:19:10.416Z,1.35
2023-01-28T08:21:39.485Z,1.33
2023-01-28T08:24:09.068Z,1.35
2023-01-28T08:26:38.260Z,1.33
2023-01-28T08:29:08.932Z,1.33
2023-01-28T08:31:38.031Z,1.41
2023-01-28T08:34:07.117Z,1.42
2023-01-28T08:36:38.757Z,1.39
2023-01-28T08:39:07.807Z,1.44
2023-01-28T08:41:36.939Z,1.26
2023-01-28T08:44:07.608Z,1.32
2023-01-28T08:46:36.801Z,1.54
2023-01-28T08:49:06.063Z,1.48
2023-01-28T08:51:35.198Z,1.43
2023-01-28T08:54:04.231Z,1.41
2023-01-28T08:56:33.917Z,1.32
2023-01-28T08:59:02.985Z,1.28
2023-01-28T09:01:34.355Z,1.35
2023-01-28T09:04:03.634Z,1.27
2023-01-28T09:06:32.849Z,1.42
2023-01-28T09:09:02.187Z,1.34
2023-01-28T09:11:31.930Z,1.42
2023-01-28T09:14:01.213Z,1.45
2023-01-28T09:16:30.997Z,1.47
2023-01-28T09:19:02.116Z,1.36
2023-01-28T09:21:31.247Z,1.29
2023-01-28T09:24:00.352Z,1.33
2023-01-28T09:26:29.463Z,1.52
2023-01-28T09:29:01.388Z,1.50
2023-01-28T09:31:30.648Z,1.58
2023-01-28T09:34:01.250Z,1.50
2023-01-28T09:36:30.264Z,1.49
2023-01-28T09:38:59.453Z,1.63
2023-01-28T09:41:30.937Z,1.61
2023-01-28T09:44:08.640Z,1.71
2023-01-28T09:46:39.674Z,1.80
2023-01-28T09:49:19.930Z,1.68
2023-01-28T09:51:52.601Z,1.88
2023-01-28T09:54:30.592Z,1.87
2023-01-28T09:57:07.836Z,1.85
2023-01-28T09:59:37.680Z,2.02
2023-01-28T10:02:37.253Z,1.97
2023-01-28T10:05:22.739Z,2.03
2023-01-28T10:08:03.768Z,2.27
2023-01-28T10:10:40.072Z,2.35
2023-01-28T10:13:24.850Z,2.51
2023-01-28T10:16:16.884Z,2.35
2023-01-28T10:18:50.524Z,2.54
2023-01-28T10:21:26.766Z,2.63
2023-01-28T10:24:04.151Z,2.55
2023-01-28T10:26:37.792Z,2.62
2023-01-28T10:29:15.557Z,2.63
2023-01-28T10:31:55.987Z,2.75
2023-01-28T10:34:25.204Z,2.68
2023-01-28T10:36:57.377Z,2.64
2023-01-28T10:39:27.685Z,2.50
2023-01-28T10:41:58.987Z,2.60
2023-01-28T10:44:34.395Z,2.63
2023-01-28T10:47:11.825Z,2.66
2023-01-28T10:49:45.355Z,2.65
2023-01-28T10:52:16.984Z,2.68
2023-01-28T10:54:46.155Z,2.55
2023-01-28T10:57:20.124Z,2.66
2023-01-28T10:59:51.837Z,2.77
2023-01-28T11:02:28.378Z,2.66
2023-01-28T11:05:07.762Z,2.49
2023-01-28T11:07:38.414Z,2.44
2023-01-28T11:10:27.032Z,2.59
2023-01-28T11:12:59.947Z,2.69
2023-01-28T11:15:29.309Z,2.58
2023-01-28T11:18:01.400Z,2.36
2023-01-28T11:20:37.243Z,2.46
2023-01-28T11:23:20.036Z,2.45
2023-01-28T11:25:49.806Z,2.33
2023-01-28T11:28:23.741Z,2.42
2023-01-28T11:30:55.848Z,2.52
2023-01-28T11:33:29.993Z,2.35
2023-01-28T11:36:06.663Z,2.02
2023-01-28T11:38:37.914Z,2.01
2023-01-28T11:41:07.520Z,1.92
2023-01-28T11:43:36.588Z,1.85
2023-01-28T11:46:22.255Z,1.91
2023-01-28T11:49:03.293Z,1.88
2023-01-28T11:51:43.540Z,2.05
2023-01-28T11:54:34.815Z,1.93
2023-01-28T11:57:19.256Z,2.03
2023-01-28T12:00:01.366Z,2.01
2023-01-28T12:02:53.231Z,2.04
2023-01-28T12:05:43.429Z,2.00
2023-01-28T12:08:23.745Z,1.89
2023-01-28T12:11:14.318Z,1.79
2023-01-28T12:13:57.010Z,2.02
2023-01-28T12:16:56.779Z,2.00
2023-01-28T12:19:48.048Z,2.14
2023-01-28T12:22:37.122Z,1.78
2023-01-28T12:25:21.652Z,1.79
2023-01-28T12:28:04.680Z,1.85
2023-01-28T12:30:45.538Z,1.74
2023-01-28T12:33:36.967Z,1.88
2023-01-28T12:36:17.884Z,1.86
2023-01-28T12:38:57.180Z,1.74
2023-01-28T12:41:31.604Z,1.76
2023-01-28T12:44:07.642Z,2.03
2023-01-28T12:46:46.976Z,1.73
2023-01-28T12:49:22.781Z,1.75
2023-01-28T12:52:01.586Z,1.73
2023-01-28T12:54:37.363Z,1.71
2023-01-28T12:57:07.831Z,1.78
2023-01-28T12:59:45.633Z,1.60
2023-01-28T13:02:24.793Z,1.58
2023-01-28T13:05:05.825Z,1.58
2023-01-28T13:07:40.134Z,1.53
2023-01-28T13:10:18.602Z,1.64
2023-01-28T13:12:49.541Z,1.66
2023-01-28T13:15:22.806Z,1.65
2023-01-28T13:18:00.183Z,1.57
2023-01-28T13:20:39.781Z,1.58
2023-01-28T13:23:25.957Z,1.67
2023-01-28T13:25:57.288Z,1.74
2023-01-28T13:28:32.935Z,1.75
2023-01-28T13:31:08.962Z,1.78
2023-01-28T13:33:41.193Z,1.68
2023-01-28T13:36:26.370Z,1.73
2023-01-28T13:39:04.058Z,1.65
2023-01-28T13:41:40.684Z,1.58
2023-01-28T13:44:21.245Z,1.43
2023-01-28T13:46:51.795Z,1.52
2023-01-28T13:49:30.290Z,1.68
2023-01-28T13:52:09.145Z,1.61
2023-01-28T13:54:40.742Z,1.57
2023-01-28T13:57:41.569Z,1.46
2023-01-28T14:00:25.182Z,1.52
2023-01-28T14:03:23.585Z,1.60
2023-01-28T14:06:08.952Z,1.69
2023-01-28T14:09:07.785Z,1.62
2023-01-28T14:12:09.114Z,1.58
2023-01-28T14:15:07.758Z,1.64
2023-01-28T14:17:45.559Z,1.64
2023-01-28T14:20:25.326Z,1.82
2023-01-28T14:23:01.379Z,1.75
2023-01-28T14:25:37.036Z,1.63
2023-01-28T14:28:09.089Z,1.48
2023-01-28T14:30:50.722Z,1.58
2023-01-28T14:33:24.821Z,1.54
2023-01-28T14:35:55.725Z,1.55
2023-01-28T14:38:26.499Z,1.56
2023-01-28T14:40:57.640Z,1.51
2023-01-28T14:43:28.761Z,1.37
2023-01-28T14:46:11.045Z,1.48
2023-01-28T14:48:49.859Z,1.47
2023-01-28T14:51:38.107Z,1.49
2023-01-28T14:54:27.261Z,1.47
2023-01-28T14:57:22.450Z,1.38
2023-01-28T14:59:54.632Z,1.31
2023-01-28T15:02:25.511Z,1.23
2023-01-28T15:04:55.723Z,1.25
2023-01-28T15:07:28.505Z,1.31
2023-01-28T15:10:05.075Z,1.25
2023-01-28T15:12:39.190Z,1.25
2023-01-28T15:15:13.682Z,1.29
2023-01-28T15:17:43.297Z,1.14
2023-01-28T15:20:19.980Z,1.14
2023-01-28T15:22:52.342Z,1.19
2023-01-28T15:25:24.733Z,1.10
2023-01-28T15:27:57.441Z,1.14
2023-01-28T15:30:28.592Z,1.14
2023-01-28T15:33:07.931Z,1.11
2023-01-28T15:35:37.955Z,1.01
2023-01-28T15:38:10.305Z,1.09
2023-01-28T15:40:44.288Z,1.04
2023-01-28T15:43:25.076Z,1.13
2023-01-28T15:45:56.813Z,1.11
2023-01-28T15:48:28.394Z,1.12
2023-01-28T15:51:02.529Z,0.85
2023-01-28T15:53:36.888Z,0.99
2023-01-28T15:56:10.437Z,0.89
2023-01-28T15:58:41.875Z,0.91
2023-01-28T16:01:20.020Z,0.83
2023-01-28T16:04:02.040Z,0.88
2023-01-28T16:06:37.778Z,0.72
2023-01-28T16:09:17.227Z,0.81
2023-01-28T16:11:46.942Z,0.86
2023-01-28T16:14:26.414Z,0.83
2023-01-28T16:16:57.325Z,0.90
2023-01-28T16:19:35.339Z,0.90
2023-01-28T16:22:04.869Z,1.03
2023-01-28T16:24:37.666Z,1.13
2023-01-28T16:27:09.093Z,1.17
2023-01-28T16:29:38.309Z,1.10
2023-01-28T16:32:35.686Z,1.26
2023-01-28T16:35:14.139Z,1.20
2023-01-28T16:37:43.537Z,1.27
2023-01-28T16:40:17.386Z,1.29
2023-01-28T16:42:48.733Z,1.27
2023-01-28T16:45:20.862Z,1.36
2023-01-28T16:47:50.111Z,1.24
2023-01-28T16:50:22.135Z,1.35
2023-01-28T16:52:53.364Z,1.43
2023-01-28T16:55:24.569Z,1.45
2023-01-28T16:57:56.083Z,1.48
2023-01-28T17:00:27.659Z,1.45
2023-01-28T17:02:58.356Z,1.34
2023-01-28T17:05:27.818Z,1.47
2023-01-28T17:08:00.209Z,1.47
2023-01-28T17:10:31.258Z,1.48
2023-01-28T17:13:00.480Z,1.50
2023-01-28T17:15:29.680Z,1.44
2023-01-28T17:17:58.973Z,1.44
2023-01-28T17:20:29.712Z,1.34
2023-01-28T17:22:59.648Z,1.34
2023-01-28T17:25:30.152Z,1.27
2023-01-28T17:27:59.252Z,1.32
2023-01-28T17:30:28.613Z,1.31
2023-01-28T17:32:57.812Z,1.32
2023-01-28T17:35:26.978Z,1.29
2023-01-28T17:37:57.707Z,1.34
2023-01-28T17:40:31.584Z,1.32
2023-01-28T17:43:01.222Z,1.23
2023-01-28T17:45:32.724Z,1.31
2023-01-28T17:48:02.167Z,1.32
2023-01-28T17:50:31.318Z,1.32
2023-01-28T17:53:01.252Z,1.22
2023-01-28T17:55:31.784Z,1.06
2023-01-28T17:58:01.075Z,1.05
2023-01-28T18:00:30.606Z,0.98
2023-01-28T18:02:59.729Z,0.96
2023-01-28T18:05:28.915Z,0.82
2023-01-28T18:07:57.959Z,0.88
2023-01-28T18:10:27.031Z,0.96
2023-01-28T18:12:58.362Z,0.83
2023-01-28T18:15:29.298Z,0.83
2023-01-28T18:17:59.128Z,0.83
2023-01-28T18:20:28.353Z,0.86
2023-01-28T18:22:57.709Z,0.85
2023-01-28T18:25:27.479Z,0.88
2023-01-28T18:27:58.359Z,0.84
2023-01-28T18:30:27.706Z,0.79
2023-01-28T18:32:56.913Z,0.69
2023-01-28T18:35:26.242Z,0.77
2023-01-28T18:37:55.705Z,0.73
2023-01-28T18:40:24.955Z,0.57
2023-01-28T18:42:54.162Z,0.62
2023-01-28T18:45:24.878Z,0.67
2023-01-28T18:47:54.136Z,0.54
2023-01-28T18:50:23.358Z,0.58
2023-01-28T18:52:55.554Z,0.48
2023-01-28T18:55:25.680Z,0.51
2023-01-28T18:57:54.867Z,0.46
2023-01-28T19:00:26.023Z,0.48
2023-01-28T19:02:55.104Z,0.52
2023-01-28T19:05:24.444Z,0.41
2023-01-28T19:07:53.421Z,0.48
2023-01-28T19:10:24.199Z,0.48
2023-01-28T19:12:53.364Z,0.56
2023-01-28T19:15:22.491Z,0.48
2023-01-28T19:17:53.646Z,0.45
2023-01-28T19:20:22.699Z,0.56
2023-01-28T19:22:52.446Z,0.54
2023-01-28T19:25:21.601Z,0.64
2023-01-28T19:27:54.841Z,0.53
2023-01-28T19:30:24.151Z,0.59
2023-01-28T19:32:55.416Z,0.54
2023-01-28T19:35:24.632Z,0.51
2023-01-28T19:37:53.832Z,0.48
2023-01-28T19:40:23.442Z,0.45
2023-01-28T19:42:54.556Z,0.47
2023-01-28T19:45:23.658Z,0.38
2023-01-28T19:47:55.035Z,0.40
2023-01-28T19:50:25.997Z,0.37
2023-01-28T19:52:55.359Z,0.47
2023-01-28T19:55:24.500Z,0.45
2023-01-28T19:57:53.577Z,0.39
2023-01-28T20:00:22.703Z,0.43
2023-01-28T20:02:54.372Z,0.39
2023-01-28T20:05:23.450Z,0.36
2023-01-28T20:07:52.601Z,0.51
2023-01-28T20:10:21.875Z,0.43
2023-01-28T20:12:51.204Z,0.50
2023-01-28T20:15:20.536Z,0.42
2023-01-28T20:17:49.698Z,0.56
2023-01-28T20:20:20.573Z,0.54
2023-01-28T20:22:49.913Z,0.43
2023-01-28T20:25:19.505Z,0.48
2023-01-28T20:27:49.701Z,0.30
2023-01-28T20:30:19.355Z,0.40
2023-01-28T20:32:48.390Z,0.47
2023-01-28T20:35:18.490Z,0.36
2023-01-28T20:37:49.070Z,0.33
2023-01-28T20:40:18.868Z,0.44
2023-01-28T20:42:47.928Z,0.42
2023-01-28T20:45:17.495Z,0.47
2023-01-28T20:47:46.878Z,0.41
2023-01-28T20:50:17.332Z,0.36
2023-01-28T20:52:48.783Z,0.40
2023-01-28T20:55:18.245Z,0.36
2023-01-28T20:57:47.329Z,0.28
2023-01-28T21:00:17.317Z,0.42
2023-01-28T21:02:46.754Z,0.39
2023-01-28T21:05:16.134Z,0.37
2023-01-28T21:07:45.286Z,0.34
2023-01-28T21:10:15.977Z,0.44
2023-01-28T21:12:45.898Z,0.41
2023-01-28T21:15:16.095Z,0.36
2023-01-28T21:17:45.356Z,0.34
2023-01-28T21:20:15.528Z,0.30
2023-01-28T21:22:52.471Z,0.43
2023-01-28T21:25:23.727Z,0.40
2023-01-28T21:27:52.858Z,0.50
2023-01-28T21:30:22.230Z,0.53
2023-01-28T21:32:51.223Z,0.35
2023-01-28T21:35:21.561Z,0.46
2023-01-28T21:37:50.594Z,0.44
2023-01-28T21:40:20.561Z,0.45
2023-01-28T21:42:55.172Z,0.54
2023-01-28T21:45:24.277Z,0.51
2023-01-28T21:47:54.423Z,0.49
2023-01-28T21:50:24.495Z,0.44
2023-01-28T21:52:53.576Z,0.49
2023-01-28T21:55:22.669Z,0.46
2023-01-28T21:58:14.331Z,0.48
2023-01-28T22:00:43.893Z,0.43
2023-01-28T22:03:13.566Z,0.26
2023-01-28T22:05:42.714Z,0.34
2023-01-28T22:08:11.977Z,0.30
2023-01-28T22:10:41.035Z,0.45
2023-01-28T22:13:11.473Z,0.42
2023-01-28T22:15:41.029Z,0.33
2023-01-28T22:18:10.989Z,0.38
2023-01-28T22:20:40.290Z,0.35
2023-01-28T22:23:10.057Z,0.47
2023-01-28T22:25:39.082Z,0.35
2023-01-28T22:28:08.853Z,0.31
2023-01-28T22:30:39.268Z,0.31
2023-01-28T22:33:08.480Z,0.23
2023-01-28T22:35:37.585Z,0.31
2023-01-28T22:38:06.868Z,0.32
2023-01-28T22:40:36.516Z,0.28
2023-01-28T22:43:05.658Z,0.33
2023-01-28T22:45:35.269Z,0.26
2023-01-28T22:48:06.847Z,0.25
2023-01-28T22:50:35.926Z,0.26
2023-01-28T22:53:05.505Z,0.35
2023-01-28T22:55:34.712Z,0.32
2023-01-28T22:58:05.711Z,0.26
2023-01-28T23:00:34.947Z,0.30
2023-01-28T23:03:06.993Z,0.21
2023-01-28T23:05:37.388Z,0.25
2023-01-28T23:08:11.728Z,0.37
2023-01-28T23:10:47.511Z,0.29
2023-01-28T23:13:18.427Z,0.28
2023-01-28T23:16:06.849Z,0.33
2023-01-28T23:18:54.955Z,0.27
2023-01-28T23:21:42.717Z,0.25
2023-01-28T23:24:22.941Z,0.35
2023-01-28T23:26:53.701Z,0.42
2023-01-28T23:29:25.046Z,0.51
2023-01-28T23:32:01.213Z,0.36
2023-01-28T23:34:34.645Z,0.58
2023-01-28T23:37:05.370Z,0.42
2023-01-28T23:39:35.515Z,0.54
2023-01-28T23:42:12.279Z,0.58
2023-01-28T23:44:41.347Z,0.59
2023-01-28T23:47:11.250Z,0.51
2023-01-28T23:49:42.186Z,0.60
2023-01-28T23:52:11.292Z,0.54
2023-01-28T23:54:41.108Z,0.58
2023-01-28T23:57:10.240Z,0.63
2023-01-28T23:59:39.273Z,0.57
